sensor_id;sensor_type;location;lat;lon;timestamp;P1;P2;P0
74434;PMS7003;62867;52.038;29.256;2023-05-10T00:02:09;16;14.2;8.8
74434;PMS7003;62867;52.038;29.256;2023-05-10T00:07:09;17;13.4;8.6
74434;PMS7003;62867;52.038;29.256;2023-05-10T00:11:41;16.5;12.8;8
74434;PMS7003;62867;52.038;29.256;2023-05-10T00:17:09;17;12.4;8.4
74434;PMS7003;62867;52.038;29.256;2023-05-10T00:22:09;18;14.2;8.8
74434;PMS7003;62867;52.038;29.256;2023-05-10T00:26:19;17.4;14.2;9
74434;PMS7003;62867;52.038;29.256;2023-05-10T00:31:37;20.4;14.4;9
74434;PMS7003;62867;52.038;29.256;2023-05-10T00:37:09;19.6;15.6;9.4
74434;PMS7003;62867;52.038;29.256;2023-05-10T00:41:29;17.6;15;9.8
74434;PMS7003;62867;52.038;29.256;2023-05-10T00:46:39;20.8;17.2;10.4
74434;PMS7003;62867;52.038;29.256;2023-05-10T00:51:32;21.4;17.2;10.2
74434;PMS7003;62867;52.038;29.256;2023-05-10T00:56:55;20.2;15.4;10
74434;PMS7003;62867;52.038;29.256;2023-05-10T01:01:33;20.4;16.4;10.4
74434;PMS7003;62867;52.038;29.256;2023-05-10T01:06:53;22.2;18;10.8
74434;PMS7003;62867;52.038;29.256;2023-05-10T01:11:19;22.5;18.8;11
74434;PMS7003;62867;52.038;29.256;2023-05-10T01:16:57;22.4;19;11.6
74434;PMS7003;62867;52.038;29.256;2023-05-10T01:21:43;21.4;17.6;11
74434;PMS7003;62867;52.038;29.256;2023-05-10T01:27:18;23.2;19;11.8
74434;PMS7003;62867;52.038;29.256;2023-05-10T01:31:59;21.6;17.8;12
74434;PMS7003;62867;52.038;29.256;2023-05-10T01:37:11;19.8;16.4;10.6
74434;PMS7003;62867;52.038;29.256;2023-05-10T01:41:40;25;17.4;11.6
74434;PMS7003;62867;52.038;29.256;2023-05-10T01:47:09;23.2;17.6;11.4
74434;PMS7003;62867;52.038;29.256;2023-05-10T01:51:31;21.6;17.6;11
74434;PMS7003;62867;52.038;29.256;2023-05-10T01:56:55;21.8;17.2;10.8
74434;PMS7003;62867;52.038;29.256;2023-05-10T02:01:44;21;15.6;10.8
74434;PMS7003;62867;52.038;29.256;2023-05-10T02:06:19;23.4;17.2;10.4
74434;PMS7003;62867;52.038;29.256;2023-05-10T02:11:55;21;17.3;9.5
74434;PMS7003;62867;52.038;29.256;2023-05-10T02:16:51;18.8;15.4;10
74434;PMS7003;62867;52.038;29.256;2023-05-10T02:21:27;22;16.8;10
74434;PMS7003;62867;52.038;29.256;2023-05-10T02:27:07;20.4;15.4;10
74434;PMS7003;62867;52.038;29.256;2023-05-10T02:32:09;19.2;15;9.8
74434;PMS7003;62867;52.038;29.256;2023-05-10T02:36:31;19;15.4;9.6
74434;PMS7003;62867;52.038;29.256;2023-05-10T02:41:53;21.4;15.8;9.4
74434;PMS7003;62867;52.038;29.256;2023-05-10T02:46:57;19.2;16.2;9.8
74434;PMS7003;62867;52.038;29.256;2023-05-10T02:51:34;17.4;14.6;9.4
74434;PMS7003;62867;52.038;29.256;2023-05-10T02:56:20;19.8;15.6;9.8
74434;PMS7003;62867;52.038;29.256;2023-05-10T03:01:53;21.6;15.8;9.6
74434;PMS7003;62867;52.038;29.256;2023-05-10T03:07:07;19.2;14.8;9.2
74434;PMS7003;62867;52.038;29.256;2023-05-10T03:12:11;19.6;16.2;10
74434;PMS7003;62867;52.038;29.256;2023-05-10T03:16:42;20.5;17.3;10
74434;PMS7003;62867;52.038;29.256;2023-05-10T03:22:10;17.4;15.6;9.2
74434;PMS7003;62867;52.038;29.256;2023-05-10T03:26:58;21.4;16.6;9.8
74434;PMS7003;62867;52.038;29.256;2023-05-10T03:31:41;18.2;16.2;10.4
74434;PMS7003;62867;52.038;29.256;2023-05-10T03:36:39;18.2;14.6;9.2
74434;PMS7003;62867;52.038;29.256;2023-05-10T03:41:55;19.6;14.6;9.6
74434;PMS7003;62867;52.038;29.256;2023-05-10T03:46:29;20.4;14;9
74434;PMS7003;62867;52.038;29.256;2023-05-10T03:51:53;17.2;14.2;9.8
74434;PMS7003;62867;52.038;29.256;2023-05-10T03:57:09;19.2;14.6;9.8
74434;PMS7003;62867;52.038;29.256;2023-05-10T04:01:29;17.8;13.6;9
74434;PMS7003;62867;52.038;29.256;2023-05-10T04:07:09;16.8;15;9.8
74434;PMS7003;62867;52.038;29.256;2023-05-10T04:11:29;19;16.4;10.2
74434;PMS7003;62867;52.038;29.256;2023-05-10T04:16:19;20.5;15.3;10.8
74434;PMS7003;62867;52.038;29.256;2023-05-10T04:21:57;18.8;16.2;9.8
74434;PMS7003;62867;52.038;29.256;2023-05-10T04:26:41;19;16.4;11
74434;PMS7003;62867;52.038;29.256;2023-05-10T04:32:07;22.2;18.4;11.2
74434;PMS7003;62867;52.038;29.256;2023-05-10T04:36:21;25.6;19;13.2
74434;PMS7003;62867;52.038;29.256;2023-05-10T04:42:07;28;23;14.2
74434;PMS7003;62867;52.038;29.256;2023-05-10T04:46:37;24.4;21.2;14
74434;PMS7003;62867;52.038;29.256;2023-05-10T04:52:07;25.6;20.2;12.2
74434;PMS7003;62867;52.038;29.256;2023-05-10T04:56:19;22.8;19.2;11.8
74434;PMS7003;62867;52.038;29.256;2023-05-10T05:01:51;23;19.4;12.2
74434;PMS7003;62867;52.038;29.256;2023-05-10T05:06:47;22;17.2;10.6
74434;PMS7003;62867;52.038;29.256;2023-05-10T05:11:27;19.8;16.4;11
74434;PMS7003;62867;52.038;29.256;2023-05-10T05:16:53;20.5;17;11.3
74434;PMS7003;62867;52.038;29.256;2023-05-10T05:21:51;21.2;18.6;12
74434;PMS7003;62867;52.038;29.256;2023-05-10T05:26:29;20;18;11.4
74434;PMS7003;62867;52.038;29.256;2023-05-10T05:32:05;21.6;17.6;10.6
74434;PMS7003;62867;52.038;29.256;2023-05-10T05:37:07;21.2;18.6;11.4
74434;PMS7003;62867;52.038;29.256;2023-05-10T05:41:31;21.2;17.4;11.8
74434;PMS7003;62867;52.038;29.256;2023-05-10T05:46:53;23.2;17.8;11.4
74434;PMS7003;62867;52.038;29.256;2023-05-10T05:51:58;18;15.8;10.6
74434;PMS7003;62867;52.038;29.256;2023-05-10T05:56:29;19.6;15.8;10.4
74434;PMS7003;62867;52.038;29.256;2023-05-10T06:01:33;20;17.4;10.6
74434;PMS7003;62867;52.038;29.256;2023-05-10T06:06:51;19.4;16.6;11
74434;PMS7003;62867;52.038;29.256;2023-05-10T06:12:05;16.6;15;10.4
74434;PMS7003;62867;52.038;29.256;2023-05-10T06:17:05;18.5;16.5;10.8
74434;PMS7003;62867;52.038;29.256;2023-05-10T06:21:27;16.4;14.6;9.4
74434;PMS7003;62867;52.038;29.256;2023-05-10T06:27:05;18.4;16.2;9.8
74434;PMS7003;62867;52.038;29.256;2023-05-10T06:31:55;17.2;14.6;9.8
74434;PMS7003;62867;52.038;29.256;2023-05-10T06:36:19;12.6;10.8;6.8
74434;PMS7003;62867;52.038;29.256;2023-05-10T06:41:35;15.4;12.6;8.4
74434;PMS7003;62867;52.038;29.256;2023-05-10T06:46:51;15.2;13;8.6
74434;PMS7003;62867;52.038;29.256;2023-05-10T06:51:39;11.2;10.2;7
74434;PMS7003;62867;52.038;29.256;2023-05-10T06:56:47;11.2;9.6;6.2
74434;PMS7003;62867;52.038;29.256;2023-05-10T07:02:03;12;9.6;6.4
74434;PMS7003;62867;52.038;29.256;2023-05-10T07:06:35;9.8;8.2;5
74434;PMS7003;62867;52.038;29.256;2023-05-10T07:12:01;9.6;8.2;5.4
74434;PMS7003;62867;52.038;29.256;2023-05-10T07:16:19;10.3;8.5;6.3
74434;PMS7003;62867;52.038;29.256;2023-05-10T07:21:27;9.8;9;6.2
74434;PMS7003;62867;52.038;29.256;2023-05-10T07:26:55;9.4;8.2;5.4
74434;PMS7003;62867;52.038;29.256;2023-05-10T07:31:49;9;7.6;5.4
74434;PMS7003;62867;52.038;29.256;2023-05-10T07:36:19;8.6;8;5.8
74434;PMS7003;62867;52.038;29.256;2023-05-10T07:41:45;8.2;7.6;5.4
74434;PMS7003;62867;52.038;29.256;2023-05-10T07:47:08;7.8;7;4.4
74434;PMS7003;62867;52.038;29.256;2023-05-10T07:51:35;8;6.4;4.6
74434;PMS7003;62867;52.038;29.256;2023-05-10T07:56:33;6.6;5.8;4
74434;PMS7003;62867;52.038;29.256;2023-05-10T08:02:05;6.2;5.4;3.4
74434;PMS7003;62867;52.038;29.256;2023-05-10T08:07:05;6;5.2;3.8
74434;PMS7003;62867;52.038;29.256;2023-05-10T08:11:41;6.6;5.8;4.2
74434;PMS7003;62867;52.038;29.256;2023-05-10T08:16:41;9;7.6;5
74434;PMS7003;62867;52.038;29.256;2023-05-10T08:21:51;7.5;6.5;4.8
74434;PMS7003;62867;52.038;29.256;2023-05-10T08:26:39;8.4;6.6;4.2
74434;PMS7003;62867;52.038;29.256;2023-05-10T08:31:19;7.4;6.6;4.8
74434;PMS7003;62867;52.038;29.256;2023-05-10T08:37:05;7;6.4;4
74434;PMS7003;62867;52.038;29.256;2023-05-10T08:42:05;8.4;6.8;4.6
74434;PMS7003;62867;52.038;29.256;2023-05-10T08:46:20;8.2;7;4.8
74434;PMS7003;62867;52.038;29.256;2023-05-10T08:51:52;8.6;6.6;4.4
74434;PMS7003;62867;52.038;29.256;2023-05-10T08:56:55;7;5.8;3.8
74434;PMS7003;62867;52.038;29.256;2023-05-10T09:01:47;7.4;6.6;4
74434;PMS7003;62867;52.038;29.256;2023-05-10T09:06:51;6.8;5.6;3.8
74434;PMS7003;62867;52.038;29.256;2023-05-10T09:11:49;7.4;6.8;5
74434;PMS7003;62867;52.038;29.256;2023-05-10T09:17:05;8.2;7;4.6
74434;PMS7003;62867;52.038;29.256;2023-05-10T09:22:05;8;6.8;4.8
74434;PMS7003;62867;52.038;29.256;2023-05-10T09:26:31;6.6;5.4;4.2
74434;PMS7003;62867;52.038;29.256;2023-05-10T09:32:05;8.8;6.8;4.6
74434;PMS7003;62867;52.038;29.256;2023-05-10T09:36:56;6.6;6;4
74434;PMS7003;62867;52.038;29.256;2023-05-10T09:41:25;6.8;6;4.2
74434;PMS7003;62867;52.038;29.256;2023-05-10T09:46:19;7.6;6.6;4.4
74434;PMS7003;62867;52.038;29.256;2023-05-10T09:52:07;7.2;6;3.8
74434;PMS7003;62867;52.038;29.256;2023-05-10T09:56:35;8.4;6.8;4.2
74434;PMS7003;62867;52.038;29.256;2023-05-10T10:02:07;6.8;6.2;4
74434;PMS7003;62867;52.038;29.256;2023-05-10T10:06:58;6.2;5.4;3.8
74434;PMS7003;62867;52.038;29.256;2023-05-10T10:11:19;7.8;6.8;4
74434;PMS7003;62867;52.038;29.256;2023-05-10T10:16:47;8.4;6.6;4.8
74434;PMS7003;62867;52.038;29.256;2023-05-10T10:21:27;8;6.5;4.8
74434;PMS7003;62867;52.038;29.256;2023-05-10T10:26:19;7.4;6.2;4.4
74434;PMS7003;62867;52.038;29.256;2023-05-10T10:31:55;7.8;6;4.2
74434;PMS7003;62867;52.038;29.256;2023-05-10T10:36:40;8.6;7.6;4.4
74434;PMS7003;62867;52.038;29.256;2023-05-10T10:41:49;10.8;8.2;5.2
74434;PMS7003;62867;52.038;29.256;2023-05-10T10:46:59;8.2;7;4.4
74434;PMS7003;62867;52.038;29.256;2023-05-10T10:52:13;8.4;7.8;5.2
74434;PMS7003;62867;52.038;29.256;2023-05-10T10:56:25;8.2;7.2;4.8
74434;PMS7003;62867;52.038;29.256;2023-05-10T11:01:33;12.8;10.8;6.6
74434;PMS7003;62867;52.038;29.256;2023-05-10T11:07:21;7.4;6.8;4.2
74434;PMS7003;62867;52.038;29.256;2023-05-10T11:12:07;8;6.4;4.6
74434;PMS7003;62867;52.038;29.256;2023-05-10T11:16:42;6.8;6;4.4
74434;PMS7003;62867;52.038;29.256;2023-05-10T11:21:44;54.3;40.8;24
74434;PMS7003;62867;52.038;29.256;2023-05-10T11:27:05;52.4;39.2;23.6
74434;PMS7003;62867;52.038;29.256;2023-05-10T11:31:22;29;21.8;13.6
74434;PMS7003;62867;52.038;29.256;2023-05-10T11:36:29;7;6;3.8
74434;PMS7003;62867;52.038;29.256;2023-05-10T11:41:35;19;16.2;11.4
74434;PMS7003;62867;52.038;29.256;2023-05-10T11:47:05;26.4;22.6;15.4
74434;PMS7003;62867;52.038;29.256;2023-05-10T11:51:39;14.6;11.8;8.4
74434;PMS7003;62867;52.038;29.256;2023-05-10T11:56:36;8.8;7.8;5.4
74434;PMS7003;62867;52.038;29.256;2023-05-10T12:02:05;8;7;5
74434;PMS7003;62867;52.038;29.256;2023-05-10T12:06:28;6.8;6;4.4
74434;PMS7003;62867;52.038;29.256;2023-05-10T12:11:41;5.8;4.8;3
74434;PMS7003;62867;52.038;29.256;2023-05-10T12:16:49;5.6;5;3.4
74434;PMS7003;62867;52.038;29.256;2023-05-10T12:22:05;5.8;5;3.8
74434;PMS7003;62867;52.038;29.256;2023-05-10T12:27:07;6.4;6.2;4.8
74434;PMS7003;62867;52.038;29.256;2023-05-10T12:31:31;7.2;6.8;4.6
74434;PMS7003;62867;52.038;29.256;2023-05-10T12:37:07;8.6;7.2;4.6
74434;PMS7003;62867;52.038;29.256;2023-05-10T12:41:57;5.6;5.2;3.4
74434;PMS7003;62867;52.038;29.256;2023-05-10T12:46:39;8.4;7.8;5.2
74434;PMS7003;62867;52.038;29.256;2023-05-10T12:51:35;7.8;7;4.8
74434;PMS7003;62867;52.038;29.256;2023-05-10T12:56:21;7.8;6.6;4.6
74434;PMS7003;62867;52.038;29.256;2023-05-10T13:01:27;7.4;6;4
74434;PMS7003;62867;52.038;29.256;2023-05-10T13:06:53;6.2;5.4;4
74434;PMS7003;62867;52.038;29.256;2023-05-10T13:12:09;8;6.2;4.8
74434;PMS7003;62867;52.038;29.256;2023-05-10T13:16:19;6.8;6;4.2
74434;PMS7003;62867;52.038;29.256;2023-05-10T13:22:07;7.2;5.8;4.2
74434;PMS7003;62867;52.038;29.256;2023-05-10T13:26:27;7;6.5;4.5
74434;PMS7003;62867;52.038;29.256;2023-05-10T13:31:29;8.4;7;4.4
74434;PMS7003;62867;52.038;29.256;2023-05-10T13:37:07;6.6;6.4;5
74434;PMS7003;62867;52.038;29.256;2023-05-10T13:41:29;9.8;9;7
74434;PMS7003;62867;52.038;29.256;2023-05-10T13:46:28;9.2;8.2;5.8
74434;PMS7003;62867;52.038;29.256;2023-05-10T13:51:53;9.2;7.8;5.4
74434;PMS7003;62867;52.038;29.256;2023-05-10T13:57:07;8.6;8;5.6
74434;PMS7003;62867;52.038;29.256;2023-05-10T14:01:37;8.8;7.8;4.8
74434;PMS7003;62867;52.038;29.256;2023-05-10T14:06:43;10.2;9.4;6.6
74434;PMS7003;62867;52.038;29.256;2023-05-10T14:12:07;10;8.4;5.8
74434;PMS7003;62867;52.038;29.256;2023-05-10T14:17:07;8.8;8.2;5.6
74434;PMS7003;62867;52.038;29.256;2023-05-10T14:21:33;9.2;8.8;5.8
74434;PMS7003;62867;52.038;29.256;2023-05-10T14:26:19;11.3;10;6.5
74434;PMS7003;62867;52.038;29.256;2023-05-10T14:32:07;9.8;8.4;5.6
74434;PMS7003;62867;52.038;29.256;2023-05-10T14:36:57;9.6;8.6;5.6
74434;PMS7003;62867;52.038;29.256;2023-05-10T14:41:38;14.2;11.8;8.8
74434;PMS7003;62867;52.038;29.256;2023-05-10T14:46:19;19.2;16.2;11
74434;PMS7003;62867;52.038;29.256;2023-05-10T14:56:35;18;15.4;10
74434;PMS7003;62867;52.038;29.256;2023-05-10T15:01:30;11.6;8.4;5.8
74434;PMS7003;62867;52.038;29.256;2023-05-10T15:07:05;9.4;7.6;5.8
74434;PMS7003;62867;52.038;29.256;2023-05-10T15:11:30;9.8;8.6;6.2
74434;PMS7003;62867;52.038;29.256;2023-05-10T15:16:43;9.8;8.2;5.2
74434;PMS7003;62867;52.038;29.256;2023-05-10T15:21:51;11;9.4;6.4
74434;PMS7003;62867;52.038;29.256;2023-05-10T15:26:29;15;12.8;8
74434;PMS7003;62867;52.038;29.256;2023-05-10T15:31:57;21.2;17.6;11.8
74434;PMS7003;62867;52.038;29.256;2023-05-10T15:36:31;12.8;10.6;7.6
74434;PMS7003;62867;52.038;29.256;2023-05-10T15:42:07;16.8;13.8;9.8
74434;PMS7003;62867;52.038;29.256;2023-05-10T15:46:53;14;11.8;8.6
74434;PMS7003;62867;52.038;29.256;2023-05-10T15:52:05;17.4;14.8;10.6
74434;PMS7003;62867;52.038;29.256;2023-05-10T15:56:19;13.4;11.4;7.4
74434;PMS7003;62867;52.038;29.256;2023-05-10T16:01:54;11.2;9;6.4
74434;PMS7003;62867;52.038;29.256;2023-05-10T16:06:30;12;9.6;6.8
74434;PMS7003;62867;52.038;29.256;2023-05-10T16:11:52;12;10.2;7
74434;PMS7003;62867;52.038;29.256;2023-05-10T16:17:07;10.6;10;7
74434;PMS7003;62867;52.038;29.256;2023-05-10T16:21:44;11.4;10.2;7
74434;PMS7003;62867;52.038;29.256;2023-05-10T16:26:49;13.3;11.3;7.8
74434;PMS7003;62867;52.038;29.256;2023-05-10T16:31:19;12.6;10.6;6.6
74434;PMS7003;62867;52.038;29.256;2023-05-10T16:36:19;13;10.8;7.6
74434;PMS7003;62867;52.038;29.256;2023-05-10T16:41:57;11.6;9.2;6
74434;PMS7003;62867;52.038;29.256;2023-05-10T16:46:42;11.8;9.8;6.4
74434;PMS7003;62867;52.038;29.256;2023-05-10T16:51:41;9.6;8.2;6
74434;PMS7003;62867;52.038;29.256;2023-05-10T16:56:53;10.4;9.6;6
74434;PMS7003;62867;52.038;29.256;2023-05-10T17:02:07;15.6;11.8;7.4
74434;PMS7003;62867;52.038;29.256;2023-05-10T17:06:38;46.2;29.6;14.8
74434;PMS7003;62867;52.038;29.256;2023-05-10T17:11:44;17.2;12.6;8
74434;PMS7003;62867;52.038;29.256;2023-05-10T17:17:08;13.6;11.2;8
74434;PMS7003;62867;52.038;29.256;2023-05-10T17:22:08;14.4;11.6;8.2
74434;PMS7003;62867;52.038;29.256;2023-05-10T17:27:08;13;11;7.3
74434;PMS7003;62867;52.038;29.256;2023-05-10T17:31:30;16.6;13;9
74434;PMS7003;62867;52.038;29.256;2023-05-10T17:37:07;30.4;23.8;14.4
74434;PMS7003;62867;52.038;29.256;2023-05-10T17:41:56;40.6;30.6;18.4
74434;PMS7003;62867;52.038;29.256;2023-05-10T17:46:30;41.2;31.2;18
74434;PMS7003;62867;52.038;29.256;2023-05-10T17:51:38;35;27.4;15.4
74434;PMS7003;62867;52.038;29.256;2023-05-10T17:57:08;33;25.2;15.6
74434;PMS7003;62867;52.038;29.256;2023-05-10T18:01:32;34.8;29.6;18.4
74434;PMS7003;62867;52.038;29.256;2023-05-10T18:06:30;34.4;29.4;18.4
74434;PMS7003;62867;52.038;29.256;2023-05-10T18:12:08;29.2;26;16.4
74434;PMS7003;62867;52.038;29.256;2023-05-10T18:16:30;28;22.4;14.2
74434;PMS7003;62867;52.038;29.256;2023-05-10T18:21:20;28;24.2;14.6
74434;PMS7003;62867;52.038;29.256;2023-05-10T18:26:22;27.2;22.2;14
74434;PMS7003;62867;52.038;29.256;2023-05-10T18:31:20;26.5;19.3;13
74434;PMS7003;62867;52.038;29.256;2023-05-10T18:36:56;24;19.6;12.8
74434;PMS7003;62867;52.038;29.256;2023-05-10T18:41:42;23.8;20.4;13.4
74434;PMS7003;62867;52.038;29.256;2023-05-10T18:47:08;24.6;19.6;12.2
74434;PMS7003;62867;52.038;29.256;2023-05-10T18:51:54;24.8;21.2;13.8
74434;PMS7003;62867;52.038;29.256;2023-05-10T18:57:08;23;20.2;14.2
74434;PMS7003;62867;52.038;29.256;2023-05-10T19:01:39;27.4;23.6;14.8
74434;PMS7003;62867;52.038;29.256;2023-05-10T19:07:08;25.4;24;15.2
74434;PMS7003;62867;52.038;29.256;2023-05-10T19:11:30;35.6;27.8;17.2
74434;PMS7003;62867;52.038;29.256;2023-05-10T19:17:08;37.2;30.2;20
74434;PMS7003;62867;52.038;29.256;2023-05-10T19:21:44;40.6;32.4;21
74434;PMS7003;62867;52.038;29.256;2023-05-10T19:26:20;37.4;30.2;20.6
74434;PMS7003;62867;52.038;29.256;2023-05-10T19:31:56;33.3;27.5;18.3
74434;PMS7003;62867;52.038;29.256;2023-05-10T19:36:42;34.2;29.4;19
74434;PMS7003;62867;52.038;29.256;2023-05-10T19:41:30;29.8;25;16.6
74434;PMS7003;62867;52.038;29.256;2023-05-10T19:47:10;28.6;22.8;15.4
74434;PMS7003;62867;52.038;29.256;2023-05-10T19:52:10;29.8;26.6;17
74434;PMS7003;62867;52.038;29.256;2023-05-10T19:56:20;32.2;26;17
74434;PMS7003;62867;52.038;29.256;2023-05-10T20:01:54;30.8;25.4;17
74434;PMS7003;62867;52.038;29.256;2023-05-10T20:07:08;28.8;25;16.6
74434;PMS7003;62867;52.038;29.256;2023-05-10T20:11:38;29.4;25;16.4
74434;PMS7003;62867;52.038;29.256;2023-05-10T20:16:44;26;21.6;14.2
74434;PMS7003;62867;52.038;29.256;2023-05-10T20:22:08;28.8;26;16.6
74434;PMS7003;62867;52.038;29.256;2023-05-10T20:27:08;28.8;23.8;15.2
74434;PMS7003;62867;52.038;29.256;2023-05-10T20:31:44;28;22.8;14.3
74434;PMS7003;62867;52.038;29.256;2023-05-10T20:36:30;28.2;23.4;14.2
74434;PMS7003;62867;52.038;29.256;2023-05-10T20:42:06;26.8;21.4;13.2
74434;PMS7003;62867;52.038;29.256;2023-05-10T20:46:58;26;21.8;14
74434;PMS7003;62867;52.038;29.256;2023-05-10T20:51:20;28;21.6;14.2
74434;PMS7003;62867;52.038;29.256;2023-05-10T20:56:28;25.4;21.8;13.2
74434;PMS7003;62867;52.038;29.256;2023-05-10T21:02:08;26.4;21.8;14.4
74434;PMS7003;62867;52.038;29.256;2023-05-10T21:06:30;33.6;27.2;16.2
74434;PMS7003;62867;52.038;29.256;2023-05-10T21:11:36;43.4;32.4;18.8
74434;PMS7003;62867;52.038;29.256;2023-05-10T21:16:22;32.8;27.6;16
74434;PMS7003;62867;52.038;29.256;2023-05-10T21:21:44;30;26.2;15.4
74434;PMS7003;62867;52.038;29.256;2023-05-10T21:26:58;26.8;23.4;15.2
74434;PMS7003;62867;52.038;29.256;2023-05-10T21:31:42;24;19.8;13.5
74434;PMS7003;62867;52.038;29.256;2023-05-10T21:36:28;27.2;22.6;15
74434;PMS7003;62867;52.038;29.256;2023-05-10T21:41:58;23.2;18.8;12.8
74434;PMS7003;62867;52.038;29.256;2023-05-10T21:47:08;27;21.4;14.8
74434;PMS7003;62867;52.038;29.256;2023-05-10T21:52:08;24.8;19.4;13.4
74434;PMS7003;62867;52.038;29.256;2023-05-10T21:56:54;23.4;20.6;14.4
74434;PMS7003;62867;52.038;29.256;2023-05-10T22:02:08;28.2;23.6;15.2
74434;PMS7003;62867;52.038;29.256;2023-05-10T22:06:38;23;20.4;13.6
74434;PMS7003;62867;52.038;29.256;2023-05-10T22:12:10;22.2;20.2;13.2
74434;PMS7003;62867;52.038;29.256;2023-05-10T22:16:20;23.4;18.6;12.4
74434;PMS7003;62867;52.038;29.256;2023-05-10T22:21:52;25.4;21.8;14.4
74434;PMS7003;62867;52.038;29.256;2023-05-10T22:26:44;29.2;26.4;17.2
74434;PMS7003;62867;52.038;29.256;2023-05-10T22:31:20;32.8;26.5;17.8
74434;PMS7003;62867;52.038;29.256;2023-05-10T22:36:54;29.8;24.8;17
74434;PMS7003;62867;52.038;29.256;2023-05-10T22:41:50;23;20.6;13.8
74434;PMS7003;62867;52.038;29.256;2023-05-10T22:46:36;23.2;20;13
74434;PMS7003;62867;52.038;29.256;2023-05-10T22:52:06;24.6;19.8;12.6
74434;PMS7003;62867;52.038;29.256;2023-05-10T22:57:06;24.6;20.8;13.2
74434;PMS7003;62867;52.038;29.256;2023-05-10T23:01:40;22.4;19.8;12.6
74434;PMS7003;62867;52.038;29.256;2023-05-10T23:06:52;25.8;24;14.6
74434;PMS7003;62867;52.038;29.256;2023-05-10T23:11:56;25.4;21.6;15.2
74434;PMS7003;62867;52.038;29.256;2023-05-10T23:16:42;26.6;22;14.8
74434;PMS7003;62867;52.038;29.256;2023-05-10T23:21:32;27;21.6;14.8
74434;PMS7003;62867;52.038;29.256;2023-05-10T23:26:50;29;22.4;13.8
74434;PMS7003;62867;52.038;29.256;2023-05-10T23:32:04;31;23.8;15.8
74434;PMS7003;62867;52.038;29.256;2023-05-10T23:37:02;27.8;23.5;15.5
74434;PMS7003;62867;52.038;29.256;2023-05-10T23:41:38;25.4;21.8;14.4
74434;PMS7003;62867;52.038;29.256;2023-05-10T23:47:04;26.6;21.8;14.6
74434;PMS7003;62867;52.038;29.256;2023-05-10T23:51:54;25.4;21;14.2
74434;PMS7003;62867;52.038;29.256;2023-05-10T23:56:26;27;22.8;14.2
